Time;durP1;ratioP1;P1;durP2;ratioP2;P2;SDS_P1;SDS_P2;PMS_P1;PMS_P2;Temp;Humidity;BMP_temperature;BMP_pressure;BME280_temperature;BME280_humidity;BME280_pressure;Samples;Min_cycle;Max_cycle;Signal;HPM_P1;HPM_P2
2022/08/03 00:00:57;;;;;;;1.87;1.40;;;;;;;22.18;44.65;96040.78;10376481;28;97035;-69
2022/08/03 00:05:59;;;;;;;;;;;;;;;22.06;44.33;96037.28;10376809;28;97739;-69
2022/08/03 00:11:06;;;;;;;3.55;1.40;;;;;;;22.01;44.63;96048.56;10376148;28;96874;-69
2022/08/03 00:16:12;;;;;;;2.28;1.58;;;;;;;21.90;44.56;96040.53;10372221;28;96880;-69
2022/08/03 00:21:15;;;;;;;2.67;1.60;;;;;;;21.92;44.47;96051.75;10376140;28;97454;-68
2022/08/03 00:26:18;;;;;;;3.80;1.70;;;;;;;21.86;45.80;96048.97;10375395;28;97227;-69
2022/08/03 00:31:22;;;;;;;2.22;1.40;;;;;;;21.63;46.29;96043.53;10376075;28;98778;-68
2022/08/03 00:36:45;;;;;;;4.50;1.77;;;;;;;21.55;47.08;96046.44;10376080;28;97344;-68
2022/08/03 00:41:47;;;;;;;2.33;1.70;;;;;;;21.47;46.90;96040.41;10374280;28;96849;-68
2022/08/03 00:46:52;;;;;;;3.88;1.98;;;;;;;21.40;47.47;96039.66;10375381;28;96847;-69
2022/08/03 00:51:55;;;;;;;5.25;2.17;;;;;;;21.38;48.03;96040.91;10374004;28;97862;-68
2022/08/03 00:56:58;;;;;;;3.25;2.10;;;;;;;21.23;48.39;96044.72;10374880;28;97763;-69
2022/08/03 01:02:03;;;;;;;2.70;1.80;;;;;;;21.13;48.39;96034.59;10375188;28;97861;-70
2022/08/03 01:07:11;;;;;;;;;;;;;;;21.08;47.84;96036.28;10368931;28;96810;-69
2022/08/03 01:12:21;;;;;;;2.92;1.92;;;;;;;20.98;49.33;96042.13;10373943;28;98900;-68
2022/08/03 01:17:31;;;;;;;2.70;1.90;;;;;;;20.91;49.80;96028.06;10370840;28;96703;-69
2022/08/03 01:22:51;;;;;;;3.60;1.98;;;;;;;20.86;49.79;96031.41;10373165;28;98604;-68
2022/08/03 01:28:02;;;;;;;3.03;1.95;;;;;;;20.80;49.67;96024.28;10377414;28;97025;-68
2022/08/03 01:33:15;;;;;;;2.92;2.10;;;;;;;20.78;50.39;96018.38;10378514;28;96954;-68
2022/08/03 01:38:24;;;;;;;3.25;2.15;;;;;;;20.67;51.40;96017.22;10377987;28;96926;-68
2022/08/03 01:43:30;;;;;;;2.55;2.10;;;;;;;20.56;51.65;96008.13;10377026;28;96673;-71
2022/08/03 01:48:56;;;;;;;3.03;1.98;;;;;;;20.46;52.53;96022.88;10370229;28;97361;-68
2022/08/03 01:54:00;;;;;;;3.30;2.20;;;;;;;20.30;53.36;96019.72;10380878;28;97952;-68
2022/08/03 01:59:05;;;;;;;3.13;2.17;;;;;;;20.21;53.42;96015.72;10380617;28;96829;-68
2022/08/03 02:04:12;;;;;;;3.90;2.25;;;;;;;20.09;54.13;96022.72;10379777;28;96908;-69
2022/08/03 02:09:19;;;;;;;3.83;2.03;;;;;;;20.09;54.65;96033.31;10380486;28;97499;-68
2022/08/03 02:14:23;;;;;;;3.70;2.28;;;;;;;20.04;53.77;96033.16;10378949;28;97037;-68
2022/08/03 02:19:28;;;;;;;3.23;2.30;;;;;;;20.08;53.61;96031.69;10379868;28;97032;-68
2022/08/03 02:24:37;;;;;;;3.28;2.20;;;;;;;20.03;53.65;96026.25;10380032;28;97833;-68
2022/08/03 02:29:42;;;;;;;3.90;2.40;;;;;;;19.93;53.63;96019.53;10379595;28;97196;-68
2022/08/03 02:34:48;;;;;;;2.78;2.10;;;;;;;19.86;53.63;96017.97;10367855;28;96894;-68
2022/08/03 02:39:56;;;;;;;2.25;2.00;;;;;;;19.90;53.71;96021.78;10379064;28;96942;-68
2022/08/03 02:45:02;;;;;;;3.50;2.25;;;;;;;19.92;54.15;96025.03;10377049;28;97284;-68
2022/08/03 02:50:09;;;;;;;3.10;2.17;;;;;;;19.85;54.29;96022.41;10373218;28;96718;-68
2022/08/03 02:55:13;;;;;;;2.40;1.98;;;;;;;19.77;54.87;96026.13;10384162;28;96768;-69
2022/08/03 03:00:17;;;;;;;3.20;2.22;;;;;;;19.70;54.39;96019.22;10378705;28;96879;-68
2022/08/03 03:05:32;;;;;;;2.42;2.05;;;;;;;19.71;54.84;96026.13;10374317;28;96977;-70
2022/08/03 03:10:55;;;;;;;;;;;;;;;19.71;53.32;96020.84;10364335;28;98076;-68
2022/08/03 03:16:02;;;;;;;2.65;1.92;;;;;;;19.57;54.31;96025.38;10376996;28;97633;-69
2022/08/03 03:21:09;;;;;;;2.75;2.17;;;;;;;19.49;54.47;96018.47;10376724;28;97330;-68
2022/08/03 03:26:14;;;;;;;3.95;1.95;;;;;;;19.43;54.63;96024.59;10365251;28;96771;-68
2022/08/03 03:31:17;;;;;;;3.30;2.30;;;;;;;19.40;54.80;96022.38;10377657;28;97425;-68
2022/08/03 03:36:21;;;;;;;2.97;2.20;;;;;;;19.37;54.83;96014.84;10376771;28;98260;-68
2022/08/03 03:41:25;;;;;;;3.28;2.40;;;;;;;19.41;55.67;96016.84;10376091;28;98863;-68
2022/08/03 03:46:28;;;;;;;2.45;1.92;;;;;;;19.35;55.61;96016.88;10376849;28;96990;-69
2022/08/03 03:51:32;;;;;;;2.55;2.33;;;;;;;19.21;56.49;96011.63;10365962;28;96862;-68
2022/08/03 03:56:35;;;;;;;4.22;2.20;;;;;;;18.92;57.00;96026.13;10374824;28;96854;-68
2022/08/03 04:01:38;;;;;;;5.65;2.33;;;;;;;18.74;57.40;96026.75;10376394;28;96847;-68
2022/08/03 04:12:04;;;;;;;2.72;2.13;;;;;;;18.77;56.58;96023.66;10366328;28;97130;-68
2022/08/03 04:17:09;;;;;;;3.33;2.38;;;;;;;18.77;57.72;96015.72;10376080;28;96888;-68
2022/08/03 04:22:17;;;;;;;2.55;1.90;;;;;;;18.75;57.73;96017.78;10375651;28;96944;-69
2022/08/03 04:27:23;;;;;;;3.03;2.20;;;;;;;18.77;57.39;96020.22;10376460;28;98414;-68
2022/08/03 04:32:27;;;;;;;4.18;2.30;;;;;;;18.62;57.93;96020.41;10375463;28;96777;-67
2022/08/03 04:37:38;;;;;;;3.55;2.05;;;;;;;18.56;57.95;96040.56;10375652;28;97788;-68
2022/08/03 04:42:42;;;;;;;2.90;2.20;;;;;;;18.47;58.44;96041.78;10367121;28;97109;-68
2022/08/03 04:47:46;;;;;;;3.13;2.33;;;;;;;18.42;58.91;96046.88;10375444;28;96766;-68
2022/08/03 04:52:50;;;;;;;2.95;2.35;;;;;;;18.50;58.67;96041.38;10375914;28;96999;-68
2022/08/03 04:57:53;;;;;;;3.60;2.45;;;;;;;18.67;58.84;96058.50;10370337;28;96913;-68
2022/08/03 05:02:56;;;;;;;3.83;2.40;;;;;;;18.77;57.41;96059.91;10376337;28;96867;-68
2022/08/03 05:08:00;;;;;;;3.10;2.80;;;;;;;18.77;57.41;96068.66;10378327;28;97674;-68
2022/08/03 05:13:10;;;;;;;3.08;2.38;;;;;;;18.72;57.90;96073.75;10376749;28;96790;-68
2022/08/03 05:18:13;;;;;;;2.83;2.28;;;;;;;18.81;58.59;96079.66;10378402;28;98128;-68
2022/08/03 05:23:17;;;;;;;3.00;2.33;;;;;;;18.99;58.27;96079.88;10379046;28;96883;-68
2022/08/03 05:28:20;;;;;;;3.75;2.20;;;;;;;19.24;57.70;96089.84;10378913;28;96852;-68
2022/08/03 05:33:23;;;;;;;3.42;2.40;;;;;;;19.43;57.41;96088.97;10378269;28;96894;-68
2022/08/03 05:38:27;;;;;;;3.10;2.50;;;;;;;19.57;56.77;96086.31;10379644;28;96864;-68
2022/08/03 05:43:36;;;;;;;5.10;2.45;;;;;;;19.76;56.72;96092.56;10376793;28;96829;-67
2022/08/03 05:48:40;;;;;;;3.05;2.42;;;;;;;19.89;55.64;96089.91;10373416;28;98117;-68
2022/08/03 05:53:44;;;;;;;3.30;2.28;;;;;;;20.04;56.06;96096.78;10370550;28;97893;-68
2022/08/03 05:58:47;;;;;;;3.05;2.47;;;;;;;20.22;54.83;96098.72;10372822;28;97034;-68
2022/08/03 06:03:51;;;;;;;3.55;2.30;;;;;;;20.29;54.62;96096.88;10378556;28;98117;-68
2022/08/03 06:08:55;;;;;;;4.15;2.17;;;;;;;20.44;54.75;96099.22;10368941;28;99172;-68
2022/08/03 06:13:58;;;;;;;3.03;2.40;;;;;;;20.62;54.37;96096.69;10371192;28;96948;-69
2022/08/03 06:19:01;;;;;;;4.65;2.40;;;;;;;20.79;53.80;96096.19;10373492;28;97776;-68
2022/08/03 06:24:06;;;;;;;4.95;2.40;;;;;;;20.92;54.28;96096.09;10379211;28;97212;-68
2022/08/03 06:29:09;;;;;;;5.93;2.72;;;;;;;21.17;54.62;96108.53;10379721;28;98347;-70
2022/08/03 06:34:12;;;;;;;6.50;2.50;;;;;;;21.35;54.16;96100.63;10379226;28;96767;-68
2022/08/03 06:39:36;;;;;;;5.97;2.65;;;;;;;21.46;53.90;96099.88;10377179;28;97685;-68
2022/08/03 06:44:39;;;;;;;3.53;2.60;;;;;;;21.67;53.59;96111.16;10376839;28;96822;-68
2022/08/03 06:49:42;;;;;;;4.85;2.50;;;;;;;21.87;53.16;96100.31;10376518;28;96930;-68
2022/08/03 06:54:50;;;;;;;4.43;2.17;;;;;;;22.08;52.40;96109.69;10375303;28;96885;-69
2022/08/03 06:59:53;;;;;;;5.85;2.72;;;;;;;22.27;51.98;96122.97;10375181;28;98225;-68
2022/08/03 07:05:13;;;;;;;3.63;2.20;;;;;;;22.44;51.51;96116.78;10371083;28;96913;-67
2022/08/03 07:10:17;;;;;;;3.05;2.35;;;;;;;22.54;50.97;96112.78;10374989;28;99288;-67
2022/08/03 07:15:20;;;;;;;;;;;;;;;22.61;51.13;96116.16;10378306;28;97215;-68
2022/08/03 07:20:43;;;;;;;2.30;1.90;;;;;;;22.71;50.55;96119.09;10379441;28;98498;-67
2022/08/03 07:25:47;;;;;;;3.25;2.00;;;;;;;22.80;50.67;96119.56;10377460;28;96920;-68
2022/08/03 07:30:50;;;;;;;;;;;;;;;22.98;50.39;96130.16;10379124;28;96796;-69
2022/08/03 07:35:53;;;;;;;3.47;2.00;;;;;;;23.15;49.42;96129.47;10378558;28;96772;-68
2022/08/03 07:40:57;;;;;;;3.53;2.13;;;;;;;23.23;49.38;96123.81;10370230;28;97112;-68
2022/08/03 07:46:00;;;;;;;4.57;2.20;;;;;;;23.33;49.07;96131.28;10362467;28;96833;-68
2022/08/03 07:51:04;;;;;;;4.97;1.98;;;;;;;23.48;49.18;96122.81;10370411;28;96829;-68
2022/08/03 07:56:08;;;;;;;2.95;2.45;;;;;;;23.62;48.76;96124.22;10378233;28;97549;-68
2022/08/03 08:01:13;;;;;;;2.42;1.92;;;;;;;23.77;48.37;96121.06;10377121;28;96718;-68
2022/08/03 08:06:18;;;;;;;4.93;2.00;;;;;;;23.92;47.62;96124.06;10377746;28;98262;-68
2022/08/03 08:11:22;;;;;;;3.97;2.00;;;;;;;24.04;47.23;96123.22;10375678;28;97261;-68
2022/08/03 08:16:25;;;;;;;2.80;1.95;;;;;;;24.23;46.82;96121.25;10377688;28;96864;-69
2022/08/03 08:21:28;;;;;;;1.90;1.52;;;;;;;24.38;45.60;96128.72;10376900;28;96824;-67
2022/08/03 08:26:52;;;;;;;1.70;1.60;;;;;;;24.56;44.75;96122.34;10377350;28;96985;-68
2022/08/03 08:31:55;;;;;;;4.80;2.05;;;;;;;24.69;44.72;96116.72;10376718;28;97097;-68
2022/08/03 08:36:58;;;;;;;5.70;2.40;;;;;;;24.85;44.08;96110.66;10379676;28;96855;-69
2022/08/03 08:42:02;;;;;;;3.38;2.00;;;;;;;24.93;43.93;96101.41;10377250;28;96830;-68
2022/08/03 08:47:07;;;;;;;3.63;1.90;;;;;;;25.10;43.67;96100.63;10383472;28;97600;-69
2022/08/03 08:52:13;;;;;;;3.88;1.98;;;;;;;25.20;43.68;96098.09;10383694;28;96659;-69
2022/08/03 08:57:37;;;;;;;2.20;1.83;;;;;;;25.32;43.01;96098.84;10383580;28;96963;-68
2022/08/03 09:02:46;;;;;;;3.83;1.92;;;;;;;25.45;42.79;96105.69;10383176;28;97011;-70
2022/08/03 09:07:49;;;;;;;4.05;2.08;;;;;;;25.58;42.75;96100.03;10383115;28;96760;-69
2022/08/03 09:12:53;;;;;;;5.03;2.20;;;;;;;25.50;41.85;96062.19;10378926;28;96785;-69
2022/08/03 09:17:58;;;;;;;4.93;1.98;;;;;;;25.89;41.46;96105.78;10383066;28;96804;-68
2022/08/03 09:23:03;;;;;;;3.25;2.38;;;;;;;26.05;41.35;96108.63;10382276;28;98205;-68
2022/08/03 09:28:34;;;;;;;3.35;2.20;;;;;;;26.18;41.26;96106.41;10382996;28;96737;-68
2022/08/03 09:33:59;;;;;;;6.03;2.67;;;;;;;26.17;41.10;96103.97;10382567;28;97005;-68
2022/08/03 09:39:04;;;;;;;7.03;2.50;;;;;;;26.12;41.06;96098.56;10381787;28;96743;-68
2022/08/03 09:44:09;;;;;;;3.97;2.58;;;;;;;26.27;40.49;96101.44;10381503;28;96848;-68
2022/08/03 09:49:28;;;;;;;7.32;2.28;;;;;;;26.42;40.52;96100.00;10381015;28;96748;-69
2022/08/03 09:54:33;;;;;;;4.03;2.58;;;;;;;26.50;40.42;96091.50;10381433;28;96873;-68
2022/08/03 09:59:37;;;;;;;6.18;2.83;;;;;;;26.61;40.15;96087.88;10381823;28;96997;-69
2022/08/03 10:04:47;;;;;;;3.47;2.22;;;;;;;26.62;39.99;96076.06;10380816;28;97151;-68
2022/08/03 10:09:56;;;;;;;3.20;1.92;;;;;;;26.82;39.23;96082.72;10381005;28;96762;-69
2022/08/03 10:15:00;;;;;;;3.22;2.05;;;;;;;27.04;39.03;96079.94;10374629;28;98748;-69
2022/08/03 10:20:05;;;;;;;2.78;2.10;;;;;;;27.27;38.57;96073.44;10380649;28;96847;-68
2022/08/03 10:25:11;;;;;;;2.13;1.60;;;;;;;27.44;38.02;96067.88;10380971;28;96834;-68
2022/08/03 10:30:16;;;;;;;2.97;2.00;;;;;;;27.53;37.82;96060.19;10380452;28;96903;-69
2022/08/03 10:35:22;;;;;;;2.63;2.08;;;;;;;27.59;37.72;96064.50;10380671;28;96843;-68
2022/08/03 10:40:27;;;;;;;2.00;1.73;;;;;;;27.58;37.69;96046.75;10379723;28;96831;-69
2022/08/03 10:45:51;;;;;;;2.88;1.77;;;;;;;27.69;37.60;96043.09;10375343;28;97066;-69
2022/08/03 10:50:55;;;;;;;3.10;2.00;;;;;;;27.76;37.46;96048.25;10380694;28;96988;-69
2022/08/03 11:01:56;;;;;;;1.85;1.63;;;;;;;28.12;36.88;96025.00;10331596;28;97196;-69
2022/08/03 11:07:22;;;;;;;2.25;1.65;;;;;;;28.34;36.59;96024.00;10324198;28;97784;-69
2022/08/03 11:12:26;;;;;;;2.70;1.95;;;;;;;28.63;36.21;96020.81;10329786;28;96900;-70
2022/08/03 11:17:37;;;;;;;3.67;1.60;;;;;;;28.70;35.42;96008.72;10330271;28;98727;-69
2022/08/03 11:22:59;;;;;;;2.80;1.90;;;;;;;28.77;35.49;96003.06;10311517;28;96896;-69
2022/08/03 11:28:27;;;;;;;2.40;1.45;;;;;;;29.03;35.10;96000.41;10332448;28;97056;-69
2022/08/03 11:33:31;;;;;;;3.17;1.60;;;;;;;29.20;34.80;96000.13;10332916;28;97078;-70
2022/08/03 11:38:34;;;;;;;2.58;1.48;;;;;;;29.31;34.20;95993.63;10362418;28;96724;-69
2022/08/03 11:43:45;;;;;;;1.80;1.48;;;;;;;29.46;34.01;95982.00;10378128;28;96943;-69
2022/08/03 11:48:51;;;;;;;2.08;1.30;;;;;;;29.68;33.49;95990.56;10378155;28;96900;-69
2022/08/03 11:53:55;;;;;;;1.70;1.42;;;;;;;29.76;33.04;95969.53;10376133;28;97751;-70
2022/08/03 11:58:59;;;;;;;2.03;1.40;;;;;;;29.95;32.86;95972.41;10374624;28;98548;-71
2022/08/03 12:04:23;;;;;;;2.15;1.23;;;;;;;30.19;32.16;95972.56;10368751;28;97994;-69
2022/08/03 12:09:26;;;;;;;1.98;1.48;;;;;;;30.20;31.70;95974.97;10377354;28;97208;-69
2022/08/03 12:14:29;;;;;;;2.20;1.50;;;;;;;30.48;31.31;95967.22;10374788;28;97769;-69
2022/08/03 12:19:53;;;;;;;1.95;1.35;;;;;;;30.59;31.38;95965.25;10370961;28;97943;-74
2022/08/03 12:24:56;;;;;;;2.85;1.20;;;;;;;30.57;31.31;95940.47;10366649;28;96869;-69
2022/08/03 12:30:00;;;;;;;3.42;1.40;;;;;;;30.88;30.66;95951.00;10369345;28;97324;-69
2022/08/03 12:35:06;;;;;;;2.10;1.30;;;;;;;31.03;30.21;95942.75;10376942;28;96840;-69
2022/08/03 12:40:12;;;;;;;3.22;1.45;;;;;;;31.00;30.17;95944.13;10376098;28;96823;-70
2022/08/03 12:45:23;;;;;;;1.27;1.17;;;;;;;31.22;30.07;95946.34;10376185;28;97320;-69
2022/08/03 12:50:32;;;;;;;1.80;1.13;;;;;;;31.44;29.50;95942.34;10374838;28;96826;-71
2022/08/03 12:55:35;;;;;;;2.22;1.40;;;;;;;31.57;29.25;95924.63;10375498;28;97157;-71
2022/08/03 13:00:58;;;;;;;1.45;1.10;;;;;;;31.76;28.90;95932.75;10376201;28;96796;-70
2022/08/03 13:06:11;;;;;;;2.10;1.13;;;;;;;31.84;28.25;95925.91;10375831;28;97071;-69
2022/08/03 13:11:26;;;;;;;2.65;1.30;;;;;;;31.94;28.12;95928.50;10375630;28;96989;-70
2022/08/03 13:16:49;;;;;;;2.58;1.20;;;;;;;32.08;27.86;95917.75;10370834;28;97030;-69
2022/08/03 13:21:53;;;;;;;2.63;1.08;;;;;;;32.35;26.94;95917.84;10370258;28;96793;-70
2022/08/03 13:27:06;;;;;;;2.97;1.10;;;;;;;32.50;27.01;95918.72;10383415;28;96789;-70
2022/08/03 13:32:29;;;;;;;2.33;1.02;;;;;;;32.69;26.75;95914.06;10382070;28;96634;-70
2022/08/03 13:37:33;;;;;;;;;;;;;;;32.95;26.94;95912.81;10382673;28;96830;-70
2022/08/03 13:42:36;;;;;;;1.15;0.98;;;;;;;33.13;26.59;95903.03;10381642;28;96779;-70
2022/08/03 13:47:40;;;;;;;2.20;0.95;;;;;;;33.17;26.42;95901.31;10381307;28;96777;-70
2022/08/03 13:52:45;;;;;;;3.30;1.00;;;;;;;33.32;25.76;95901.00;10376708;28;97823;-70
2022/08/03 13:57:48;;;;;;;1.38;0.90;;;;;;;33.36;25.65;95893.09;10381909;28;97364;-70
2022/08/03 14:03:11;;;;;;;1.48;1.15;;;;;;;33.48;25.44;95898.78;10381654;28;96814;-70
2022/08/03 14:08:18;;;;;;;2.80;0.90;;;;;;;33.69;25.16;95876.72;10381053;28;97284;-69
2022/08/03 14:13:21;;;;;;;1.63;0.80;;;;;;;34.02;24.43;95880.03;10381570;28;96876;-69
2022/08/03 14:18:24;;;;;;;1.67;0.70;;;;;;;34.45;23.95;95876.84;10381510;28;97020;-70
2022/08/03 14:23:37;;;;;;;2.95;1.10;;;;;;;35.14;23.23;95875.59;10376076;28;97345;-70
2022/08/03 14:28:40;;;;;;;1.23;0.90;;;;;;;36.32;22.28;95861.22;10380370;28;96756;-70
2022/08/03 14:33:43;;;;;;;1.30;0.90;;;;;;;37.89;20.74;95860.53;10379360;28;98006;-70
2022/08/03 14:38:47;;;;;;;1.00;0.80;;;;;;;39.21;19.75;95857.25;10380318;28;96747;-71
2022/08/03 14:43:50;;;;;;;3.28;0.90;;;;;;;40.17;19.26;95851.16;10380456;28;96721;-70
2022/08/03 14:49:04;;;;;;;1.30;0.88;;;;;;;41.37;18.26;95858.53;10378881;28;97078;-71
2022/08/03 14:54:29;;;;;;;1.23;0.70;;;;;;;42.04;17.32;95843.91;10380087;28;96770;-71
2022/08/03 14:59:32;;;;;;;1.98;0.90;;;;;;;42.55;17.01;95843.72;10379425;28;96793;-71
2022/08/03 15:04:55;;;;;;;1.98;1.05;;;;;;;42.62;16.65;95843.06;10379345;28;98394;-71
2022/08/03 15:09:59;;;;;;;1.00;0.70;;;;;;;43.06;16.36;95839.09;10379918;28;98791;-72
2022/08/03 15:15:04;;;;;;;1.13;0.70;;;;;;;43.71;15.58;95840.88;10378955;28;96808;-71
2022/08/03 15:20:08;;;;;;;1.67;0.77;;;;;;;44.19;15.41;95840.28;10371838;28;96773;-71
2022/08/03 15:25:32;;;;;;;4.00;0.90;;;;;;;44.62;15.30;95819.47;10378712;28;96879;-72
2022/08/03 15:30:55;;;;;;;1.08;0.60;;;;;;;44.77;15.02;95825.94;10377301;28;98356;-71
2022/08/03 15:35:58;;;;;;;2.03;0.75;;;;;;;45.29;14.30;95823.22;10378527;28;96848;-71
2022/08/03 15:41:03;;;;;;;0.68;0.60;;;;;;;45.47;14.37;95808.72;10374251;28;98022;-70
2022/08/03 15:46:06;;;;;;;1.20;0.60;;;;;;;45.33;14.40;95814.97;10377308;28;97222;-71
2022/08/03 15:51:29;;;;;;;1.95;0.50;;;;;;;45.25;14.49;95808.59;10377340;28;97447;-71
2022/08/03 15:56:33;;;;;;;1.25;0.63;;;;;;;45.98;13.95;95807.81;10378439;28;96806;-71
2022/08/03 16:01:36;;;;;;;0.90;0.55;;;;;;;46.11;13.66;95809.03;10377730;28;97742;-71
2022/08/03 16:06:40;;;;;;;2.00;0.50;;;;;;;46.23;13.22;95796.06;10377458;28;96856;-70
2022/08/03 16:11:46;;;;;;;0.88;0.70;;;;;;;46.45;13.37;95807.94;10376714;28;96888;-71
2022/08/03 16:16:49;;;;;;;2.85;0.70;;;;;;;46.67;13.14;95797.69;10375624;28;98711;-70
2022/08/03 16:21:52;;;;;;;1.60;0.60;;;;;;;46.93;12.92;95795.75;10375129;28;96774;-70
2022/08/03 16:26:56;;;;;;;0.95;0.70;;;;;;;47.05;13.24;95800.88;10366879;28;97337;-73
2022/08/03 16:32:05;;;;;;;2.97;0.70;;;;;;;46.80;13.10;95798.91;10362717;28;96841;-71
2022/08/03 16:37:11;;;;;;;1.10;0.77;;;;;;;47.11;12.91;95785.47;10369159;28;99108;-71
2022/08/03 16:42:37;;;;;;;1.77;0.70;;;;;;;46.90;13.00;95789.03;10365978;28;98026;-72
2022/08/03 16:47:40;;;;;;;1.52;0.60;;;;;;;46.78;12.83;95784.72;10376442;28;97439;-71
2022/08/03 16:52:43;;;;;;;0.65;0.57;;;;;;;46.97;12.79;95783.47;10371041;28;97227;-71
2022/08/03 16:57:50;;;;;;;1.23;0.70;;;;;;;47.09;13.09;95775.97;10372784;28;96830;-71
2022/08/03 17:03:03;;;;;;;2.85;0.75;;;;;;;46.76;13.05;95784.28;10379657;28;100374;-71
2022/08/03 17:08:22;;;;;;;0.82;0.60;;;;;;;46.32;13.28;95788.19;10368208;28;98129;-71
2022/08/03 17:13:30;;;;;;;0.82;0.82;;;;;;;46.54;13.09;95782.69;10377840;28;99135;-71
2022/08/03 17:18:49;;;;;;;1.35;0.90;;;;;;;46.67;12.84;95781.91;10371328;28;97218;-70
2022/08/03 17:23:57;;;;;;;1.05;0.65;;;;;;;46.68;12.84;95782.72;10374474;28;97535;-71
2022/08/03 17:29:04;;;;;;;1.55;0.50;;;;;;;45.75;12.87;95773.00;10370376;28;97685;-70
2022/08/03 17:34:14;;;;;;;2.05;0.77;;;;;;;45.47;12.99;95786.66;10366394;28;98456;-71
2022/08/03 17:39:18;;;;;;;0.77;0.77;;;;;;;45.30;13.35;95780.66;10370465;28;98690;-71
2022/08/03 17:44:43;;;;;;;1.75;0.60;;;;;;;45.23;13.87;95780.63;10368606;28;97755;-70
2022/08/03 17:49:49;;;;;;;4.43;2.92;;;;;;;44.39;13.93;95786.63;10371861;28;97211;-70
2022/08/03 17:55:01;;;;;;;3.92;0.80;;;;;;;43.75;14.64;95783.13;10368066;28;99118;-72
2022/08/03 18:05:48;;;;;;;1.85;0.75;;;;;;;40.31;16.75;95796.03;10381093;28;97331;-70
2022/08/03 18:11:13;;;;;;;1.75;0.82;;;;;;;38.80;17.99;95807.19;10375602;28;97683;-69
2022/08/03 18:16:24;;;;;;;1.25;0.85;;;;;;;37.69;18.77;95801.38;10371115;28;98325;-69
2022/08/03 18:21:27;;;;;;;1.52;0.90;;;;;;;36.56;19.30;95808.19;10369179;28;98879;-70
2022/08/03 18:26:51;;;;;;;1.55;0.80;;;;;;;35.73;20.66;95803.84;10367231;28;98631;-67
2022/08/03 18:31:58;;;;;;;3.55;0.77;;;;;;;35.02;21.45;95802.09;10366621;28;99105;-68
2022/08/03 18:37:05;;;;;;;2.15;1.30;;;;;;;34.38;21.42;95800.56;10379437;28;97086;-67
2022/08/03 18:42:11;;;;;;;1.80;0.85;;;;;;;33.88;21.85;95806.13;10379196;28;96804;-70
2022/08/03 18:47:50;;;;;;;2.63;1.00;;;;;;;33.47;22.24;95800.50;10368496;28;96854;-68
2022/08/03 18:53:02;;;;;;;3.85;1.90;;;;;;;33.16;22.56;95799.59;10377388;28;96878;-67
2022/08/03 18:58:13;;;;;;;5.05;1.45;;;;;;;32.89;23.32;95812.00;10378237;28;96878;-67
2022/08/03 19:03:25;;;;;;;4.60;1.35;;;;;;;32.58;23.45;95798.25;10375056;28;96928;-68
2022/08/03 19:08:49;;;;;;;1.90;1.38;;;;;;;32.35;24.24;95815.16;10377043;28;98246;-68
2022/08/03 19:13:56;;;;;;;2.85;1.30;;;;;;;32.04;25.18;95808.66;10375512;28;98418;-68
2022/08/03 19:19:01;;;;;;;2.42;1.33;;;;;;;31.76;24.65;95805.81;10376312;28;97443;-69
2022/08/03 19:24:07;;;;;;;3.08;1.20;;;;;;;31.21;25.51;95804.41;10376645;28;96852;-70
2022/08/03 19:29:12;;;;;;;1.90;0.90;;;;;;;30.94;26.37;95815.81;10369886;28;96851;-69
2022/08/03 19:34:19;;;;;;;10.82;6.07;;;;;;;30.90;26.47;95820.19;10368248;28;97109;-68
2022/08/03 19:39:26;;;;;;;1.88;1.27;;;;;;;30.58;26.99;95813.50;10372053;28;96838;-68
2022/08/03 19:44:31;;;;;;;3.53;2.08;;;;;;;30.42;26.75;95826.31;10375126;27;96817;-70
2022/08/03 19:49:39;;;;;;;3.67;1.30;;;;;;;30.22;27.85;95832.69;10369842;28;97537;-69
2022/08/03 19:55:05;;;;;;;2.22;1.30;;;;;;;30.00;28.38;95841.19;10367512;28;97297;-70
2022/08/03 20:00:11;;;;;;;1.92;1.20;;;;;;;29.74;28.96;95835.19;10371894;28;98695;-71
2022/08/03 20:05:17;;;;;;;6.55;5.95;;;;;;;29.54;29.40;95842.34;10365663;28;96892;-66
2022/08/03 20:10:20;;;;;;;3.53;1.80;;;;;;;29.46;30.04;95847.47;10372939;28;98683;-68
2022/08/03 20:15:23;;;;;;;3.58;1.70;;;;;;;29.20;30.82;95850.28;10370287;28;97118;-68
2022/08/03 20:20:37;;;;;;;3.85;1.90;;;;;;;28.90;31.58;95851.19;10367210;28;98439;-69
2022/08/03 20:25:47;;;;;;;3.72;2.15;;;;;;;28.56;32.30;95846.41;10368635;28;98129;-68
2022/08/03 20:31:00;;;;;;;3.13;1.58;;;;;;;28.22;32.92;95852.31;10363061;28;97325;-68
2022/08/03 20:36:05;;;;;;;;;;;;;;;28.11;32.26;95861.47;10375936;28;98067;-68
2022/08/03 20:41:08;;;;;;;4.20;1.98;;;;;;;28.06;32.80;95859.59;10381577;28;97119;-69
2022/08/03 20:46:13;;;;;;;3.57;1.60;;;;;;;28.03;32.89;95860.16;10380907;28;96806;-72
2022/08/03 20:51:40;;;;;;;2.53;1.90;;;;;;;27.89;33.03;95857.19;10373915;28;97337;-67
2022/08/03 20:56:56;;;;;;;17.45;14.48;;;;;;;27.52;33.96;95866.19;10377777;28;97286;-69
2022/08/03 21:01:59;;;;;;;3.03;1.48;;;;;;;27.10;34.59;95875.16;10375699;28;97216;-71
2022/08/03 21:07:07;;;;;;;2.70;1.73;;;;;;;26.84;33.99;95876.91;10377304;28;98857;-75
2022/08/03 21:12:23;;;;;;;3.25;1.52;;;;;;;26.93;33.58;95867.28;10375954;28;96874;-76
2022/08/03 21:17:32;;;;;;;2.63;1.40;;;;;;;26.99;33.68;95868.97;10380248;28;97259;-77
2022/08/03 21:22:49;;;;;;;1.93;1.20;;;;;;;26.88;33.55;95883.34;10374576;28;97998;-77
2022/08/03 21:27:52;;;;;;;1.48;1.10;;;;;;;26.84;33.22;95892.97;10377476;28;98050;-77
2022/08/03 21:32:56;;;;;;;1.70;0.97;;;;;;;26.73;33.29;95890.22;10375807;28;97362;-77
2022/08/03 21:38:19;;;;;;;1.75;1.35;;;;;;;26.55;33.83;95890.66;10376175;28;97465;-76
2022/08/03 21:43:31;;;;;;;2.95;1.17;;;;;;;26.44;33.79;95889.78;10377779;28;97007;-76
2022/08/03 21:48:37;;;;;;;1.23;1.13;;;;;;;26.42;33.84;95881.19;10373718;28;99139;-76
2022/08/03 21:53:43;;;;;;;1.58;1.17;;;;;;;26.30;34.15;95889.41;10373103;28;98587;-76
2022/08/03 21:59:14;;;;;;;3.38;1.10;;;;;;;26.18;34.15;95891.41;10376680;28;98215;-77
2022/08/03 22:04:18;;;;;;;1.67;1.00;;;;;;;26.01;34.43;95899.56;10373329;28;97611;-77
2022/08/03 22:09:45;;;;;;;1.67;1.30;;;;;;;25.75;35.98;95904.66;10375520;28;97927;-76
2022/08/03 22:14:54;;;;;;;1.70;1.10;;;;;;;25.56;36.11;95900.72;10375202;28;97378;-76
2022/08/03 22:20:05;;;;;;;3.22;1.17;;;;;;;25.27;36.48;95879.53;10373050;28;97225;-76
2022/08/03 22:25:15;;;;;;;1.33;0.93;;;;;;;25.24;36.92;95909.44;10376133;28;96738;-76
2022/08/03 22:30:19;;;;;;;1.85;1.23;;;;;;;25.13;36.21;95908.50;10373146;28;97661;-76
2022/08/03 22:35:24;;;;;;;1.48;1.00;;;;;;;25.11;36.60;95915.94;10376138;28;97888;-76
2022/08/03 22:40:29;;;;;;;2.08;1.15;;;;;;;25.04;36.78;95908.13;10375420;28;97025;-75
2022/08/03 22:45:34;;;;;;;1.42;1.08;;;;;;;24.86;37.10;95913.75;10372856;28;98972;-76
2022/08/03 22:50:58;;;;;;;1.90;1.25;;;;;;;24.71;38.34;95908.94;10372795;28;98596;-76
2022/08/03 22:56:03;;;;;;;3.63;1.40;;;;;;;24.60;39.18;95915.22;10369631;28;97994;-76
2022/08/03 23:01:08;;;;;;;2.65;1.90;;;;;;;24.38;40.21;95923.94;10374174;28;99231;-75
2022/08/03 23:06:11;;;;;;;2.90;2.05;;;;;;;24.20;40.52;95935.69;10373451;28;97877;-75
2022/08/03 23:11:17;;;;;;;3.30;1.97;;;;;;;24.12;41.32;95941.41;10376666;28;96926;-74
2022/08/03 23:16:22;;;;;;;3.70;1.55;;;;;;;23.96;40.85;95950.16;10371611;28;97280;-75
2022/08/03 23:21:31;;;;;;;3.45;1.40;;;;;;;23.94;40.45;95967.22;10373834;28;96974;-74
2022/08/03 23:26:56;;;;;;;2.60;1.40;;;;;;;23.81;40.08;95961.34;10368772;28;97209;-75
2022/08/03 23:32:01;;;;;;;1.90;1.30;;;;;;;23.67;40.70;95959.00;10374739;28;96936;-74
2022/08/03 23:37:05;;;;;;;1.60;1.30;;;;;;;23.48;41.04;95962.84;10371963;28;98468;-74
2022/08/03 23:42:11;;;;;;;2.60;1.33;;;;;;;23.44;40.67;95945.72;10370199;28;97153;-74
2022/08/03 23:47:14;;;;;;;2.47;1.20;;;;;;;23.58;40.46;95963.06;10368422;28;98923;-74
2022/08/03 23:52:26;;;;;;;4.00;1.73;;;;;;;23.59;40.39;95964.69;10374909;28;97130;-74
2022/08/03 23:57:39;;;;;;;4.03;1.50;;;;;;;23.49;40.46;95953.81;10370750;28;97196;-74
